Time;durP1;ratioP1;P1;durP2;ratioP2;P2;SDS_P1;SDS_P2;PMS_P1;PMS_P2;Temp;Humidity;BMP_temperature;BMP_pressure;BME280_temperature;BME280_humidity;BME280_pressure;Samples;Min_cycle;Max_cycle;Signal;HPM_P1;HPM_P2
2023/12/09 04:28:12;;;;;;;9.10;7.62;;;8.60;58.60;;;;;;21129;6545;288038;-74
2023/12/09 04:30:39;;;;;;;10.13;7.87;;;8.50;58.60;;;;;;20421;6847;311076;-74
2023/12/09 04:33:05;;;;;;;10.00;8.20;;;8.50;58.60;;;;;;20409;6895;312184;-74
2023/12/09 04:35:30;;;;;;;10.03;8.33;;;8.50;58.50;;;;;;20389;6878;310501;-74
2023/12/09 04:37:57;;;;;;;12.52;8.43;;;8.50;58.80;;;;;;20461;6878;339897;-74
2023/12/09 04:40:22;;;;;;;6.50;5.90;;;8.50;58.80;;;;;;20672;6878;117576;-74
2023/12/09 04:42:48;;;;;;;5.97;4.93;;;8.30;59.30;;;;;;20677;6878;117290;-74
2023/12/09 04:45:13;;;;;;;6.05;5.00;;;7.90;60.20;;;;;;20678;6878;117810;-74
2023/12/09 04:47:39;;;;;;;8.17;5.53;;;7.60;61.10;;;;;;20442;6873;339822;-74
2023/12/09 04:50:05;;;;;;;6.27;5.23;;;7.60;61.70;;;;;;20684;6873;117603;-75
2023/12/09 04:52:30;;;;;;;7.13;5.90;;;7.60;61.90;;;;;;20438;6873;335401;-74
2023/12/09 04:54:56;;;;;;;7.07;6.00;;;7.70;62.30;;;;;;20460;6878;309401;-75
2023/12/09 04:57:22;;;;;;;7.45;5.10;;;7.90;62.00;;;;;;20655;6879;120927;-76
2023/12/09 04:59:47;;;;;;;4.82;4.43;;;7.80;61.80;;;;;;20669;6879;117474;-74
2023/12/09 05:02:13;;;;;;;7.20;6.17;;;7.60;62.50;;;;;;20462;6879;310250;-74
2023/12/09 05:04:39;;;;;;;6.60;5.45;;;7.60;62.90;;;;;;20677;6879;117653;-74
2023/12/09 05:07:05;;;;;;;7.87;5.30;;;7.60;62.90;;;;;;20670;6879;117301;-74
2023/12/09 05:09:33;;;;;;;9.30;6.10;;;7.50;63.50;;;;;;20428;6879;280181;-74
2023/12/09 05:12:01;;;;;;;7.87;5.20;;;7.60;63.70;;;;;;20695;6879;68107;-74
2023/12/09 05:14:24;;;;;;;7.47;4.90;;;7.60;63.40;;;;;;20694;6879;68635;-73
2023/12/09 05:16:50;;;;;;;6.73;4.90;;;7.40;63.60;;;;;;20686;6879;68611;-74
2023/12/09 05:19:15;;;;;;;8.20;5.03;;;7.20;64.00;;;;;;20684;6879;67936;-73
2023/12/09 05:21:41;;;;;;;8.88;5.07;;;7.10;64.50;;;;;;20696;6879;68272;-73
2023/12/09 05:24:07;;;;;;;6.63;5.93;;;6.90;64.90;;;;;;20479;6879;310039;-74
2023/12/09 05:26:33;;;;;;;6.20;5.25;;;7.10;64.90;;;;;;20696;6879;67687;-74
2023/12/09 05:28:58;;;;;;;5.90;5.23;;;7.10;64.50;;;;;;20686;6879;68085;-74
2023/12/09 05:31:23;;;;;;;6.60;5.47;;;7.00;64.70;;;;;;20695;6879;68255;-74
2023/12/09 05:33:50;;;;;;;9.77;4.70;;;6.70;65.50;;;;;;20625;6903;68461;-74
2023/12/09 05:36:15;;;;;;;5.70;4.73;;;6.70;65.40;;;;;;20618;6903;67876;-74
2023/12/09 05:38:41;;;;;;;5.25;4.32;;;6.60;65.80;;;;;;20618;6901;68031;-74
2023/12/09 05:41:07;;;;;;;5.73;4.20;;;6.40;66.40;;;;;;20620;6902;68472;-74
2023/12/09 05:43:37;;;;;;;6.53;5.50;;;6.60;66.40;;;;;;20409;6902;280794;-73
2023/12/09 05:46:03;;;;;;;7.85;5.85;;;7.00;65.20;;;;;;20402;6902;341586;-73
2023/12/09 05:48:29;;;;;;;5.10;4.40;;;6.90;65.10;;;;;;20642;6893;68763;-74
2023/12/09 05:50:54;;;;;;;6.00;5.40;;;7.10;64.60;;;;;;20428;6893;310378;-73
2023/12/09 05:53:22;;;;;;;7.10;5.78;;;7.40;63.50;;;;;;20436;6893;340463;-73
2023/12/09 05:55:48;;;;;;;7.80;4.27;;;7.40;63.40;;;;;;20649;6893;72994;-74
2023/12/09 05:58:14;;;;;;;4.93;4.43;;;7.30;63.20;;;;;;20640;6893;68609;-73
2023/12/09 06:00:39;;;;;;;9.27;5.00;;;7.10;63.90;;;;;;20641;6893;71055;-73
2023/12/09 06:03:06;;;;;;;7.63;5.87;;;7.00;64.80;;;;;;20434;6893;281038;-74
2023/12/09 06:05:31;;;;;;;6.87;5.50;;;7.00;65.00;;;;;;20605;6893;120866;-75
2023/12/09 06:07:57;;;;;;;6.20;5.60;;;7.10;64.90;;;;;;20415;6893;280661;-75
2023/12/09 06:10:23;;;;;;;4.85;4.45;;;7.20;65.20;;;;;;20614;6893;117609;-74
2023/12/09 06:12:49;;;;;;;7.97;4.23;;;7.20;64.60;;;;;;20621;6893;117863;-75
2023/12/09 06:15:14;;;;;;;6.47;5.43;;;7.10;65.10;;;;;;20416;6893;280695;-73
2023/12/09 06:17:40;;;;;;;7.20;4.93;;;7.20;65.30;;;;;;20607;6894;118101;-75
2023/12/09 06:20:09;;;;;;;8.50;5.00;;;7.20;65.10;;;;;;20413;6894;282401;-73
2023/12/09 06:22:35;;;;;;;9.45;5.62;;;7.30;65.00;;;;;;20405;6894;282000;-74
2023/12/09 06:25:00;;;;;;;6.85;4.80;;;7.60;64.10;;;;;;20631;6894;117679;-74
2023/12/09 06:27:26;;;;;;;5.90;4.10;;;7.40;64.30;;;;;;20604;6894;117604;-74
2023/12/09 06:29:52;;;;;;;5.47;4.80;;;7.40;64.30;;;;;;20413;6894;325847;-75
2023/12/09 06:32:18;;;;;;;5.63;4.87;;;7.50;64.30;;;;;;20417;6894;282148;-79
2023/12/09 06:34:46;;;;;;;7.37;4.77;;;7.70;63.40;;;;;;20413;6894;312778;-79
2023/12/09 06:37:12;;;;;;;6.40;3.50;;;7.90;62.50;;;;;;20556;6894;118607;-74
2023/12/09 06:39:39;;;;;;;5.53;4.27;;;7.80;62.50;;;;;;20276;6894;309891;-76
2023/12/09 06:42:05;;;;;;;6.43;3.50;;;7.80;62.50;;;;;;20628;6894;118262;-75
2023/12/09 06:44:30;;;;;;;5.68;3.58;;;7.70;62.60;;;;;;20615;6894;117995;-76
2023/12/09 06:46:55;;;;;;;4.57;3.30;;;7.50;63.20;;;;;;20622;6894;117874;-79
2023/12/09 06:49:21;;;;;;;4.43;3.30;;;7.30;64.00;;;;;;20613;6892;118048;-76
2023/12/09 06:51:48;;;;;;;6.10;4.20;;;7.10;64.60;;;;;;20280;6893;310724;-78
2023/12/09 06:54:13;;;;;;;4.47;4.07;;;7.20;64.60;;;;;;20621;6893;119217;-77
2023/12/09 06:56:39;;;;;;;4.72;4.12;;;7.20;64.50;;;;;;20625;6893;117586;-76
2023/12/09 06:59:07;;;;;;;5.53;4.30;;;7.00;66.00;;;;;;20611;6893;118468;-76
2023/12/09 07:01:32;;;;;;;6.53;5.50;;;7.00;65.40;;;;;;20388;6893;312093;-75
2023/12/09 07:04:00;;;;;;;5.90;5.13;;;7.40;64.80;;;;;;20420;6893;281444;-75
2023/12/09 07:06:25;;;;;;;6.67;4.03;;;7.40;64.10;;;;;;20418;6893;311021;-73
2023/12/09 07:08:51;;;;;;;4.32;3.92;;;7.70;63.10;;;;;;20603;6893;117312;-71
2023/12/09 07:11:20;;;;;;;3.72;3.35;;;7.40;63.50;;;;;;20601;6893;118354;-72
2023/12/09 07:13:48;;;;;;;4.10;3.00;;;7.40;63.50;;;;;;20586;6900;127341;-75
2023/12/09 07:16:15;;;;;;;3.33;2.60;;;7.20;64.30;;;;;;20595;6900;117472;-75
2023/12/09 07:18:45;;;;;;;4.30;3.90;;;7.20;65.00;;;;;;20359;6900;282380;-74
2023/12/09 07:21:10;;;;;;;4.00;3.33;;;7.20;65.00;;;;;;20585;6901;117793;-74
2023/12/09 07:23:35;;;;;;;5.53;4.22;;;7.20;64.80;;;;;;20363;6901;281124;-76
2023/12/09 07:26:02;;;;;;;6.33;4.70;;;7.70;63.60;;;;;;20384;6901;311314;-78
2023/12/09 07:28:31;;;;;;;4.80;4.30;;;8.00;62.80;;;;;;20314;6894;284911;-78
2023/12/09 07:30:58;;;;;;;5.25;4.40;;;8.00;62.80;;;;;;20436;6879;339414;-79
2023/12/09 07:33:24;;;;;;;5.27;4.30;;;8.20;62.00;;;;;;20378;6894;311116;-78
2023/12/09 07:35:49;;;;;;;5.13;4.53;;;8.40;61.40;;;;;;20390;6896;310734;-76
2023/12/09 07:38:15;;;;;;;4.80;2.90;;;8.50;60.80;;;;;;20609;6894;117379;-73
2023/12/09 07:40:41;;;;;;;3.97;3.70;;;8.40;61.20;;;;;;20606;6894;117507;-74
2023/12/09 07:43:06;;;;;;;5.40;4.90;;;8.10;62.00;;;;;;20396;6894;343637;-72
2023/12/09 07:45:32;;;;;;;19.50;17.70;;;8.10;62.50;;;;;;20434;6879;281034;-70
2023/12/09 07:47:57;;;;;;;14.17;12.93;;;8.30;61.90;;;;;;20409;6894;313196;-73
2023/12/09 07:50:24;;;;;;;5.60;4.97;;;8.50;61.20;;;;;;20235;6898;309464;-73
2023/12/09 07:52:49;;;;;;;4.77;4.37;;;8.60;60.30;;;;;;20234;7005;118162;-72
2023/12/09 07:55:16;;;;;;;5.18;3.35;;;8.50;60.40;;;;;;20485;6894;118288;-72
2023/12/09 07:57:41;;;;;;;5.43;3.73;;;8.20;61.20;;;;;;20296;6879;119104;-73
2023/12/09 08:00:07;;;;;;;4.40;4.00;;;8.00;62.00;;;;;;20411;6894;311578;-72
2023/12/09 08:02:32;;;;;;;12.48;11.15;;;8.00;62.10;;;;;;20413;6893;282465;-72
2023/12/09 08:04:58;;;;;;;12.05;10.95;;;8.30;61.30;;;;;;20460;6879;326483;-73
2023/12/09 08:07:24;;;;;;;4.70;4.30;;;8.40;60.50;;;;;;20606;6894;146007;-73
2023/12/09 08:09:50;;;;;;;6.57;5.53;;;8.40;60.50;;;;;;20618;6896;117551;-72
2023/12/09 08:12:15;;;;;;;7.60;6.80;;;8.10;61.00;;;;;;20411;6896;287823;-72
2023/12/09 08:14:41;;;;;;;5.63;5.10;;;8.10;61.00;;;;;;20430;6888;340394;-73
2023/12/09 08:17:06;;;;;;;6.73;6.13;;;8.40;60.50;;;;;;20392;6894;312323;-74
2023/12/09 08:19:33;;;;;;;6.12;5.22;;;8.50;60.10;;;;;;20631;6879;120639;-74
2023/12/09 08:21:58;;;;;;;4.33;4.03;;;8.50;60.10;;;;;;20603;6894;117461;-73
2023/12/09 08:24:24;;;;;;;7.30;6.60;;;8.20;60.70;;;;;;20399;6894;281963;-74
2023/12/09 08:26:50;;;;;;;6.20;5.70;;;8.20;61.70;;;;;;20672;6879;117317;-72
2023/12/09 08:29:16;;;;;;;5.13;4.73;;;8.20;60.90;;;;;;20623;6894;117634;-72
2023/12/09 08:31:41;;;;;;;7.47;6.80;;;8.10;61.50;;;;;;20567;6684;127683;-73
2023/12/09 08:34:17;;;;;;;4.57;4.27;;;7.90;62.10;;;;;;20842;6767;117121;-71
2023/12/09 08:36:52;;;;;;;6.00;5.50;;;7.70;62.60;;;;;;20594;6782;307382;-73
2023/12/09 08:39:28;;;;;;;5.53;4.97;;;7.90;62.40;;;;;;20814;6767;117524;-72
2023/12/09 08:42:05;;;;;;;4.40;3.80;;;7.90;62.60;;;;;;20668;6783;118130;-71
2023/12/09 08:44:40;;;;;;;4.80;3.47;;;7.80;62.60;;;;;;20826;6763;117959;-72
2023/12/09 08:47:16;;;;;;;4.10;3.70;;;7.70;63.00;;;;;;20827;6768;117103;-71
2023/12/09 08:49:52;;;;;;;6.60;3.60;;;7.50;64.00;;;;;;20804;6766;119558;-71
2023/12/09 08:52:28;;;;;;;3.93;3.57;;;7.50;64.00;;;;;;20625;6838;117618;-72
2023/12/09 08:55:04;;;;;;;4.97;4.40;;;7.50;64.40;;;;;;20625;6767;336516;-72
2023/12/09 08:57:39;;;;;;;4.80;4.30;;;7.70;63.90;;;;;;20602;6767;308547;-72
2023/12/09 09:00:20;;;;;;;4.50;3.93;;;8.20;62.40;;;;;;20760;6781;117032;-72
2023/12/09 09:02:55;;;;;;;4.50;4.20;;;8.20;62.40;;;;;;20677;6751;287312;-72
2023/12/09 09:05:27;;;;;;;4.70;4.30;;;8.40;61.80;;;;;;20649;6751;307970;-72
2023/12/09 09:08:03;;;;;;;4.13;3.73;;;8.70;61.00;;;;;;20866;6757;117234;-72
2023/12/09 09:10:38;;;;;;;4.03;3.37;;;8.70;61.20;;;;;;20824;6757;117094;-71
2023/12/09 09:13:14;;;;;;;4.80;4.32;;;8.60;61.80;;;;;;20671;6757;307687;-72
2023/12/09 09:15:50;;;;;;;4.30;3.75;;;8.70;61.60;;;;;;20682;6756;337133;-72
2023/12/09 09:18:25;;;;;;;3.67;3.23;;;9.00;60.70;;;;;;20865;6756;67688;-72
2023/12/09 09:21:01;;;;;;;3.40;3.00;;;9.00;60.80;;;;;;20822;6756;67575;-71
2023/12/09 09:23:36;;;;;;;3.73;3.43;;;8.80;61.20;;;;;;20676;6756;335676;-71
2023/12/09 09:26:12;;;;;;;3.20;3.00;;;8.90;60.80;;;;;;20895;6756;68401;-72
2023/12/09 09:28:48;;;;;;;3.20;3.00;;;8.90;60.90;;;;;;20874;6756;67394;-72
2023/12/09 09:31:24;;;;;;;4.17;3.37;;;8.90;62.00;;;;;;20575;6756;324014;-72
2023/12/09 09:34:00;;;;;;;3.75;3.45;;;8.90;61.20;;;;;;20699;6751;290933;-72
2023/12/09 09:36:35;;;;;;;3.53;3.23;;;9.20;60.30;;;;;;20700;6751;309561;-72
2023/12/09 09:39:12;;;;;;;3.00;2.80;;;9.50;59.50;;;;;;20867;6756;70026;-72
2023/12/09 09:42:00;;;;;;;3.47;3.20;;;9.50;59.80;;;;;;20550;6757;338386;-71
2023/12/09 09:44:36;;;;;;;3.10;2.90;;;9.50;59.80;;;;;;20904;6751;67792;-72
2023/12/09 09:47:12;;;;;;;3.20;3.00;;;9.50;59.80;;;;;;20688;6751;307847;-71
2023/12/09 09:49:47;;;;;;;3.10;2.90;;;9.60;59.40;;;;;;20829;6766;68108;-71
2023/12/09 09:52:23;;;;;;;3.03;2.93;;;9.60;59.70;;;;;;20482;6762;339355;-71
2023/12/09 09:55:00;;;;;;;3.17;2.97;;;9.70;59.50;;;;;;20852;6767;68146;-71
2023/12/09 09:57:35;;;;;;;4.50;3.20;;;9.70;59.70;;;;;;20871;6762;69271;-72
2023/12/09 10:00:13;;;;;;;3.80;3.50;;;9.40;60.80;;;;;;20621;6767;279795;-71
2023/12/09 10:02:48;;;;;;;3.67;3.47;;;9.60;60.00;;;;;;20646;6767;336309;-71
2023/12/09 10:05:24;;;;;;;3.50;3.30;;;10.10;57.20;;;;;;20660;6762;279138;-71
2023/12/09 10:08:00;;;;;;;3.00;2.80;;;10.10;57.20;;;;;;20870;6762;67718;-71
2023/12/09 10:10:35;;;;;;;2.83;2.73;;;10.00;57.50;;;;;;20811;6767;68036;-71
2023/12/09 10:13:11;;;;;;;3.50;3.20;;;9.80;59.30;;;;;;20649;6767;279480;-71
2023/12/09 10:15:47;;;;;;;3.67;3.37;;;9.90;58.90;;;;;;20651;6762;336085;-71
2023/12/09 10:18:22;;;;;;;3.50;3.20;;;10.20;57.20;;;;;;20860;6762;67282;-71
2023/12/09 10:20:58;;;;;;;3.37;3.17;;;10.20;57.50;;;;;;20575;6767;309040;-71
2023/12/09 10:23:34;;;;;;;2.90;2.80;;;10.20;57.00;;;;;;20854;6767;67732;-72
2023/12/09 10:26:09;;;;;;;3.60;3.30;;;10.10;57.20;;;;;;20668;6761;315731;-71
2023/12/09 10:28:45;;;;;;;3.42;3.22;;;10.20;56.90;;;;;;20430;6766;307921;-71
2023/12/09 10:31:20;;;;;;;4.12;3.65;;;10.40;56.80;;;;;;20536;6761;279421;-72
2023/12/09 10:33:56;;;;;;;3.83;3.43;;;10.60;56.30;;;;;;20849;6766;67501;-71
2023/12/09 10:36:32;;;;;;;3.30;3.10;;;10.50;56.70;;;;;;20871;6761;68217;-72
2023/12/09 10:39:11;;;;;;;2.87;2.67;;;10.00;58.30;;;;;;20846;6766;67391;-72
2023/12/09 10:41:45;;;;;;;3.13;2.93;;;9.90;59.20;;;;;;20754;6761;68150;-72
2023/12/09 10:44:21;;;;;;;3.95;3.25;;;9.80;60.00;;;;;;20671;6762;277294;-71
2023/12/09 10:46:56;;;;;;;3.93;3.60;;;9.90;59.20;;;;;;20631;6766;306695;-73
2023/12/09 10:49:32;;;;;;;5.00;3.10;;;10.20;57.40;;;;;;20850;6762;67878;-72
2023/12/09 10:52:08;;;;;;;3.83;3.62;;;10.30;57.60;;;;;;20491;6766;340543;-72
2023/12/09 10:54:43;;;;;;;4.22;3.83;;;10.30;56.90;;;;;;20635;6766;307542;-72
2023/12/09 10:57:19;;;;;;;4.07;3.80;;;10.50;56.50;;;;;;20656;6762;278142;-72
2023/12/09 10:59:55;;;;;;;4.20;3.83;;;10.70;56.20;;;;;;20628;6766;280388;-72
2023/12/09 11:02:30;;;;;;;3.40;3.20;;;10.90;55.60;;;;;;20648;6833;90795;-72
2023/12/09 11:05:13;;;;;;;3.37;3.17;;;10.80;56.00;;;;;;20663;6762;321985;-72
2023/12/09 11:07:48;;;;;;;3.42;3.22;;;10.70;55.40;;;;;;20633;6767;336837;-72
2023/12/09 11:10:24;;;;;;;4.10;3.80;;;11.00;54.70;;;;;;20623;6762;310807;-72
2023/12/09 11:13:00;;;;;;;3.00;2.80;;;11.00;55.40;;;;;;20856;6762;67437;-72
2023/12/09 11:15:35;;;;;;;3.47;3.00;;;10.80;55.30;;;;;;20638;6767;336997;-72
2023/12/09 11:18:11;;;;;;;3.35;3.15;;;10.80;55.20;;;;;;20654;6762;277976;-72
2023/12/09 11:20:47;;;;;;;2.90;2.70;;;10.90;54.50;;;;;;20787;6767;68049;-72
2023/12/09 11:23:22;;;;;;;3.30;3.10;;;10.80;55.20;;;;;;20644;6767;339761;-72
2023/12/09 11:25:58;;;;;;;2.73;2.53;;;10.70;55.40;;;;;;20881;6762;70072;-71
2023/12/09 11:28:34;;;;;;;2.37;2.27;;;10.70;55.40;;;;;;20843;6767;67760;-71
2023/12/09 11:31:10;;;;;;;2.77;2.60;;;10.50;56.10;;;;;;20576;6762;320918;-72
2023/12/09 11:33:48;;;;;;;2.67;2.53;;;10.50;55.80;;;;;;20856;6767;68299;-72
2023/12/09 11:36:24;;;;;;;2.70;2.60;;;10.40;56.10;;;;;;20673;6762;309027;-74
2023/12/09 11:38:56;;;;;;;2.53;2.33;;;10.50;55.50;;;;;;20856;6761;67284;-71
2023/12/09 11:41:32;;;;;;;15.50;5.93;;;10.40;55.30;;;;;;20536;6766;339288;-72
2023/12/09 11:44:10;;;;;;;2.40;2.30;;;10.40;55.00;;;;;;20861;6766;72619;-71
2023/12/09 11:46:45;;;;;;;3.10;2.90;;;10.30;55.50;;;;;;20658;6761;306907;-72
2023/12/09 11:49:19;;;;;;;2.97;2.80;;;10.40;55.00;;;;;;20630;6766;330246;-72
2023/12/09 11:51:54;;;;;;;2.53;2.43;;;10.60;54.60;;;;;;20741;6761;68556;-72
2023/12/09 11:54:33;;;;;;;2.77;2.67;;;10.50;55.10;;;;;;20642;6766;341517;-72
2023/12/09 11:57:06;;;;;;;2.87;2.70;;;10.50;54.80;;;;;;20871;6762;71936;-72
2023/12/09 11:59:41;;;;;;;2.30;2.00;;;10.40;55.30;;;;;;20849;6766;74053;-72
2023/12/09 12:02:19;;;;;;;2.30;2.20;;;10.00;56.80;;;;;;20714;6762;68343;-72
2023/12/09 12:04:53;;;;;;;2.80;2.60;;;10.00;56.80;;;;;;20642;6766;309477;-72
2023/12/09 12:07:30;;;;;;;2.50;2.37;;;10.20;56.50;;;;;;20873;6762;68064;-73
2023/12/09 12:10:08;;;;;;;2.92;2.83;;;10.10;56.40;;;;;;20562;6766;284578;-73
2023/12/09 12:12:42;;;;;;;2.70;2.50;;;10.30;55.80;;;;;;20864;6766;68269;-72
2023/12/09 12:15:18;;;;;;;2.73;2.53;;;10.40;55.40;;;;;;20664;6762;307687;-74
2023/12/09 12:17:54;;;;;;;2.40;2.30;;;10.40;55.90;;;;;;20852;6766;67739;-72
2023/12/09 12:20:30;;;;;;;2.17;2.07;;;10.40;55.80;;;;;;20826;6762;67694;-72
2023/12/09 12:23:05;;;;;;;2.78;2.60;;;10.20;56.40;;;;;;20597;6781;337927;-70
2023/12/09 12:25:41;;;;;;;2.57;2.47;;;10.30;56.10;;;;;;20828;6776;67908;-70
2023/12/09 12:28:18;;;;;;;2.78;2.67;;;10.50;55.20;;;;;;20652;6761;306450;-69
2023/12/09 12:30:53;;;;;;;2.67;2.47;;;10.40;55.10;;;;;;20814;6761;68602;-70
2023/12/09 12:33:30;;;;;;;2.97;2.77;;;10.50;55.60;;;;;;20659;6762;336273;-69
2023/12/09 12:36:08;;;;;;;2.92;2.78;;;10.50;54.30;;;;;;20618;6776;319003;-70
2023/12/09 12:38:41;;;;;;;2.40;2.30;;;10.80;53.70;;;;;;20808;6777;68368;-70
2023/12/09 12:41:16;;;;;;;2.77;2.57;;;10.70;54.10;;;;;;20714;6780;68650;-70
2023/12/09 12:43:52;;;;;;;2.87;2.67;;;10.40;54.90;;;;;;20631;6783;337763;-71
2023/12/09 12:46:28;;;;;;;2.20;2.10;;;10.50;54.80;;;;;;20834;6783;67858;-70
2023/12/09 12:49:06;;;;;;;3.20;3.00;;;10.50;55.40;;;;;;20538;6799;322584;-70
2023/12/09 12:51:39;;;;;;;3.83;3.55;;;10.60;55.00;;;;;;20472;6784;299080;-71
2023/12/09 12:54:17;;;;;;;2.60;2.40;;;10.90;53.60;;;;;;20875;6763;68414;-70
2023/12/09 12:56:50;;;;;;;2.90;2.60;;;10.80;54.10;;;;;;20865;6763;67919;-70
2023/12/09 12:59:26;;;;;;;2.70;2.50;;;10.60;54.90;;;;;;20864;6763;68424;-70
2023/12/09 13:02:01;;;;;;;2.70;2.50;;;10.40;55.60;;;;;;20708;6763;119202;-70
2023/12/09 13:04:37;;;;;;;2.90;2.70;;;10.30;56.30;;;;;;20628;6763;338294;-70
2023/12/09 13:07:12;;;;;;;2.57;2.47;;;10.40;54.70;;;;;;20740;6796;117350;-70
2023/12/09 13:09:48;;;;;;;2.78;2.58;;;10.40;55.10;;;;;;20572;6776;308223;-70
2023/12/09 13:12:24;;;;;;;2.90;2.70;;;10.60;54.30;;;;;;20420;6781;280057;-70
2023/12/09 13:14:59;;;;;;;2.43;2.23;;;10.90;53.50;;;;;;20825;6781;118989;-70
2023/12/09 13:17:35;;;;;;;2.70;2.50;;;10.90;54.10;;;;;;20835;6762;118015;-70
2023/12/09 13:20:11;;;;;;;3.60;3.30;;;10.70;54.80;;;;;;20601;6768;283906;-70
2023/12/09 13:22:46;;;;;;;2.77;2.57;;;10.80;53.50;;;;;;20816;6775;117928;-70
2023/12/09 13:25:23;;;;;;;2.57;2.37;;;10.60;54.40;;;;;;20786;6777;117362;-71
2023/12/09 18:18:31;;;;;;;1.43;1.33;;;10.90;55.40;;;;;;21623;6506;219972;-70
2023/12/09 18:20:56;;;;;;;1.27;1.17;;;10.70;56.10;;;;;;21258;6604;300959;-70
2023/12/09 18:23:22;;;;;;;1.33;1.23;;;10.60;56.50;;;;;;21408;6650;67077;-71
2023/12/09 18:25:47;;;;;;;1.27;1.17;;;10.40;57.00;;;;;;21403;6650;66848;-71
2023/12/09 18:28:13;;;;;;;1.10;1.10;;;10.10;57.70;;;;;;21392;6650;66825;-69
2023/12/09 18:30:39;;;;;;;0.93;0.93;;;9.90;59.40;;;;;;21406;6649;68373;-71
2023/12/09 18:33:05;;;;;;;0.90;0.90;;;9.70;60.40;;;;;;21199;6649;301549;-70
2023/12/09 18:35:31;;;;;;;1.23;1.12;;;9.70;60.50;;;;;;21159;6656;330348;-71
2023/12/09 18:37:59;;;;;;;3.30;1.10;;;10.00;59.60;;;;;;21406;6649;66994;-70
2023/12/09 18:40:24;;;;;;;1.40;1.30;;;10.00;59.50;;;;;;21390;6649;72610;-70
2023/12/09 18:42:49;;;;;;;2.28;1.50;;;9.70;60.70;;;;;;21187;6649;301283;-70
2023/12/09 18:45:15;;;;;;;1.70;1.15;;;9.70;61.20;;;;;;21379;6656;67687;-70
2023/12/09 18:47:41;;;;;;;3.60;1.10;;;9.70;61.20;;;;;;21373;6660;66397;-70
2023/12/09 18:50:07;;;;;;;2.83;1.50;;;9.60;61.70;;;;;;21157;6655;273706;-70
2023/12/09 18:52:32;;;;;;;1.40;1.30;;;9.70;62.30;;;;;;21376;6655;66527;-71
2023/12/09 18:54:58;;;;;;;1.30;1.20;;;9.60;62.20;;;;;;21159;6655;330513;-69
2023/12/09 18:57:24;;;;;;;1.33;1.23;;;9.70;62.50;;;;;;21384;6656;66690;-71
2023/12/09 18:59:49;;;;;;;2.10;1.10;;;9.70;62.50;;;;;;21397;6651;66545;-72
2023/12/09 19:02:15;;;;;;;1.47;1.30;;;9.50;62.90;;;;;;21165;6656;301437;-71
2023/12/09 19:04:44;;;;;;;1.60;1.50;;;9.60;63.30;;;;;;21181;6651;301689;-70
2023/12/09 19:07:11;;;;;;;1.03;1.03;;;9.80;63.00;;;;;;21402;6651;72664;-71
2023/12/09 19:09:36;;;;;;;1.20;1.10;;;9.80;62.80;;;;;;21394;6651;67289;-71
2023/12/09 19:12:01;;;;;;;1.50;1.40;;;9.60;63.20;;;;;;21403;6649;71197;-71
2023/12/09 19:14:27;;;;;;;1.50;1.40;;;9.40;63.80;;;;;;21184;6649;301631;-70
2023/12/09 19:16:56;;;;;;;1.57;1.47;;;9.50;64.40;;;;;;21165;6656;301345;-71
2023/12/09 19:19:22;;;;;;;2.00;1.73;;;9.80;64.10;;;;;;21185;6649;271887;-71
2023/12/09 19:21:47;;;;;;;1.73;1.63;;;10.00;62.40;;;;;;21149;6660;274659;-72
2023/12/09 19:24:13;;;;;;;1.50;1.40;;;10.20;61.90;;;;;;21376;6660;66719;-71
2023/12/09 19:26:38;;;;;;;1.53;1.43;;;10.10;61.80;;;;;;21151;6660;272007;-72
2023/12/09 19:29:04;;;;;;;2.07;1.50;;;10.20;62.00;;;;;;21156;6655;301015;-72
2023/12/09 19:31:30;;;;;;;1.65;1.50;;;10.20;62.00;;;;;;21185;6650;272905;-72
2023/12/09 19:33:56;;;;;;;1.87;1.23;;;10.30;61.60;;;;;;21384;6656;68138;-72
2023/12/09 19:36:22;;;;;;;1.60;1.40;;;9.90;63.70;;;;;;21407;6650;66008;-70
2023/12/09 19:38:48;;;;;;;1.97;1.40;;;9.90;64.00;;;;;;21167;6650;298927;-69
2023/12/09 19:41:14;;;;;;;1.35;1.30;;;9.80;63.90;;;;;;21154;6656;302367;-71
2023/12/09 19:43:40;;;;;;;1.40;1.30;;;10.10;62.80;;;;;;21396;6650;66822;-72
2023/12/09 19:46:05;;;;;;;1.00;0.87;;;10.00;62.70;;;;;;21416;6650;68959;-71
2023/12/09 19:48:32;;;;;;;1.20;1.20;;;9.50;65.00;;;;;;21368;6656;66759;-71
2023/12/09 19:50:57;;;;;;;1.20;1.10;;;9.50;65.00;;;;;;21183;6650;273778;-71
2023/12/09 19:53:23;;;;;;;1.50;1.10;;;9.60;65.60;;;;;;21182;6649;303285;-71
2023/12/09 19:56:09;;;;;;;1.10;0.73;;;9.80;65.10;;;;;;21173;6656;301512;-71
2023/12/09 19:58:44;;;;;;;1.00;0.90;;;10.10;63.60;;;;;;21165;6533;116994;-72
2023/12/09 20:01:20;;;;;;;0.80;0.80;;;9.90;64.30;;;;;;20827;6748;117339;-70
2023/12/09 20:03:55;;;;;;;0.80;0.80;;;9.60;65.00;;;;;;20913;6737;118170;-74
2023/12/09 20:06:31;;;;;;;1.10;1.00;;;9.40;65.90;;;;;;20914;6759;116843;-73
2023/12/09 20:09:07;;;;;;;1.67;0.63;;;9.20;66.60;;;;;;20851;6759;117090;-74
2023/12/09 20:11:42;;;;;;;0.63;0.63;;;9.00;67.30;;;;;;20759;6759;117711;-72
2023/12/09 20:14:18;;;;;;;2.50;0.70;;;8.90;67.90;;;;;;20910;6745;116849;-73
2023/12/09 20:16:54;;;;;;;0.70;0.70;;;8.80;68.40;;;;;;20816;6769;117554;-72
2023/12/09 20:19:29;;;;;;;2.47;0.80;;;8.70;68.80;;;;;;20673;6766;336543;-73
2023/12/09 20:22:05;;;;;;;0.80;0.80;;;8.90;69.60;;;;;;20796;6739;119870;-72
2023/12/09 20:24:41;;;;;;;0.80;0.80;;;9.00;68.80;;;;;;20784;6787;117643;-71
2023/12/09 20:27:16;;;;;;;0.88;0.88;;;8.90;69.10;;;;;;20559;6790;298725;-71
2023/12/09 20:29:54;;;;;;;0.77;0.77;;;9.10;69.70;;;;;;20522;6789;309396;-72
2023/12/09 20:32:27;;;;;;;0.67;0.67;;;9.50;69.00;;;;;;20638;6688;117424;-75
2023/12/09 20:35:06;;;;;;;0.80;0.80;;;9.50;68.10;;;;;;20575;6789;337030;-75
2023/12/09 20:37:42;;;;;;;0.50;0.50;;;9.60;68.50;;;;;;20805;6789;67830;-75
2023/12/09 20:40:17;;;;;;;0.60;0.60;;;9.50;68.10;;;;;;20776;6789;67817;-75
2023/12/09 20:42:53;;;;;;;0.70;0.70;;;9.30;68.60;;;;;;20596;6776;309195;-75
2023/12/09 20:45:29;;;;;;;0.80;0.73;;;9.40;68.70;;;;;;20794;6791;117314;-75
2023/12/09 20:48:06;;;;;;;0.73;0.70;;;9.40;68.60;;;;;;20807;6779;117210;-75
2023/12/09 20:50:44;;;;;;;0.70;0.70;;;9.30;69.30;;;;;;20491;6776;279783;-76
2023/12/09 20:53:19;;;;;;;0.60;0.60;;;9.40;69.10;;;;;;20776;6791;117078;-75
2023/12/09 20:55:55;;;;;;;1.30;0.63;;;9.30;69.00;;;;;;20783;6776;116926;-75
2023/12/09 20:58:31;;;;;;;0.50;0.50;;;9.00;70.20;;;;;;20791;6779;116991;-75
2023/12/09 21:01:08;;;;;;;0.77;0.77;;;9.20;71.20;;;;;;20523;6774;278529;-76
2023/12/09 21:03:43;;;;;;;0.90;0.70;;;9.20;70.50;;;;;;20629;6759;277586;-75
2023/12/09 21:06:20;;;;;;;0.70;0.70;;;9.50;68.80;;;;;;20757;6786;118676;-76
2023/12/09 21:08:55;;;;;;;1.10;0.80;;;9.50;68.80;;;;;;20538;6792;307266;-75
2023/12/09 21:11:31;;;;;;;0.90;0.90;;;9.60;69.00;;;;;;20469;6771;309056;-75
2023/12/09 21:14:06;;;;;;;1.03;0.73;;;9.90;68.20;;;;;;20600;6763;310298;-75
2023/12/09 21:16:42;;;;;;;1.20;0.80;;;10.10;66.30;;;;;;20548;6778;307526;-75
2023/12/09 21:19:18;;;;;;;1.00;0.90;;;10.30;65.60;;;;;;20639;6778;335311;-76
2023/12/09 21:21:54;;;;;;;2.47;0.67;;;10.40;65.00;;;;;;20701;6782;117221;-76
2023/12/09 21:24:29;;;;;;;1.77;0.80;;;10.20;65.10;;;;;;20850;6794;117265;-75
2023/12/09 21:27:08;;;;;;;0.67;0.67;;;9.90;67.00;;;;;;20565;6763;118091;-76
2023/12/09 21:29:41;;;;;;;0.80;0.80;;;9.60;68.20;;;;;;20541;6819;306447;-74
2023/12/09 21:32:17;;;;;;;1.20;1.10;;;9.60;68.60;;;;;;20460;6763;298500;-74
2023/12/09 21:34:52;;;;;;;1.40;0.80;;;9.90;67.90;;;;;;20815;6764;116998;-74
2023/12/09 21:37:28;;;;;;;2.70;1.10;;;9.80;67.60;;;;;;20622;6765;307321;-75
2023/12/09 21:40:04;;;;;;;1.33;1.10;;;10.10;66.40;;;;;;20622;6765;337838;-74
2023/12/09 21:42:40;;;;;;;1.53;1.30;;;10.00;66.30;;;;;;20796;6780;117904;-74
2023/12/09 21:45:19;;;;;;;1.10;1.00;;;9.90;67.10;;;;;;20855;6763;117104;-75
2023/12/09 21:47:54;;;;;;;1.07;0.90;;;9.70;68.40;;;;;;20792;6777;118374;-74
2023/12/09 21:50:27;;;;;;;1.10;1.10;;;9.40;69.00;;;;;;20783;6777;116827;-76
2023/12/09 21:53:02;;;;;;;1.30;1.20;;;9.20;69.90;;;;;;20661;6757;335608;-75
2023/12/09 21:55:38;;;;;;;1.40;1.37;;;9.40;70.60;;;;;;20579;6769;278865;-74
2023/12/09 21:58:14;;;;;;;1.30;1.20;;;9.90;68.60;;;;;;20589;6779;277746;-74
2023/12/09 22:00:50;;;;;;;1.77;1.10;;;9.90;68.60;;;;;;20509;6794;309980;-74
2023/12/09 22:03:26;;;;;;;1.12;1.00;;;10.20;66.90;;;;;;20630;6750;337079;-75
2023/12/09 22:06:02;;;;;;;1.77;1.10;;;10.40;66.30;;;;;;20633;6764;337641;-75
2023/12/09 22:08:41;;;;;;;1.33;0.90;;;10.50;65.90;;;;;;20724;6805;120744;-74
2023/12/09 22:11:17;;;;;;;2.57;0.70;;;10.30;65.90;;;;;;20662;6789;120186;-74
2023/12/09 22:13:52;;;;;;;1.23;0.80;;;9.90;67.80;;;;;;20720;6803;117590;-74
2023/12/09 22:16:29;;;;;;;0.60;0.60;;;9.40;70.30;;;;;;20685;6828;117608;-74
2023/12/09 22:19:06;;;;;;;0.77;0.77;;;9.50;72.10;;;;;;20581;6780;307326;-74
2023/12/09 22:21:42;;;;;;;1.10;0.80;;;9.50;71.40;;;;;;20453;6772;310660;-75
2023/12/09 22:24:18;;;;;;;0.80;0.80;;;9.80;69.80;;;;;;20844;6763;116977;-74